createdAt,value
2019-01-21T00:02:25.700Z,41.37
2019-01-21T00:04:56.299Z,41.20
2019-01-21T00:07:28.049Z,40.87
2019-01-21T00:09:58.992Z,44.30
2019-01-21T00:12:29.488Z,43.00
2019-01-21T00:15:00.036Z,42.40
2019-01-21T00:17:30.568Z,43.37
2019-01-21T00:20:00.982Z,42.67
2019-01-21T00:22:31.555Z,42.10
2019-01-21T00:25:02.062Z,43.27
2019-01-21T00:27:32.801Z,42.53
2019-01-21T00:30:03.241Z,43.07
2019-01-21T00:32:33.873Z,41.97
2019-01-21T00:35:04.651Z,43.30
2019-01-21T00:37:35.235Z,42.73
2019-01-21T00:40:06.709Z,43.03
2019-01-21T00:42:37.227Z,43.60
2019-01-21T00:45:08.315Z,41.70
2019-01-21T00:47:38.986Z,42.57
2019-01-21T00:50:10.513Z,43.70
2019-01-21T00:52:40.967Z,43.07
2019-01-21T00:55:12.053Z,42.33
2019-01-21T00:57:42.559Z,42.10
2019-01-21T01:00:16.876Z,43.77
2019-01-21T01:02:48.274Z,43.60
2019-01-21T01:05:19.676Z,44.10
2019-01-21T01:07:50.059Z,43.63
2019-01-21T01:10:20.742Z,43.37
2019-01-21T01:12:51.641Z,44.37
2019-01-21T01:15:22.512Z,46.43
2019-01-21T01:17:53.384Z,46.73
2019-01-21T01:20:24.072Z,46.67
2019-01-21T01:22:54.602Z,48.03
2019-01-21T01:25:25.202Z,49.50
2019-01-21T01:27:55.973Z,48.30
2019-01-21T01:30:26.504Z,49.50
2019-01-21T01:32:56.956Z,49.37
2019-01-21T01:35:27.764Z,46.77
2019-01-21T01:37:58.299Z,45.77
2019-01-21T01:40:29.078Z,43.43
2019-01-21T01:43:01.200Z,45.90
2019-01-21T01:45:33.350Z,46.80
2019-01-21T01:48:04.950Z,46.47
2019-01-21T01:50:35.716Z,44.90
2019-01-21T01:53:06.398Z,47.50
2019-01-21T01:55:36.980Z,46.93
2019-01-21T01:58:07.917Z,46.40
2019-01-21T02:00:38.747Z,47.57
2019-01-21T02:03:09.644Z,46.37
2019-01-21T02:05:40.253Z,45.03
2019-01-21T02:08:10.953Z,45.83
2019-01-21T02:10:41.469Z,45.57
2019-01-21T02:13:12.176Z,45.60
2019-01-21T02:15:42.847Z,46.23
2019-01-21T02:18:13.414Z,45.83
2019-01-21T02:20:46.103Z,45.50
2019-01-21T02:23:18.704Z,44.67
2019-01-21T02:25:56.431Z,46.73
2019-01-21T02:29:12.123Z,46.30
2019-01-21T02:32:12.621Z,45.43
2019-01-21T02:35:39.314Z,46.40
2019-01-21T02:39:04.443Z,44.30
2019-01-21T02:41:42.840Z,44.83
2019-01-21T02:44:55.273Z,43.40
2019-01-21T02:48:13.611Z,44.77
2019-01-21T02:51:08.913Z,43.97
2019-01-21T02:54:16.674Z,44.13
2019-01-21T02:57:33.718Z,45.13
2019-01-21T03:00:48.355Z,45.17
2019-01-21T03:03:43.615Z,43.27
2019-01-21T03:06:21.845Z,43.07
2019-01-21T03:09:29.474Z,43.07
2019-01-21T03:12:31.122Z,42.93
2019-01-21T03:15:37.391Z,43.33
2019-01-21T03:18:58.787Z,43.17
2019-01-21T03:21:57.040Z,44.07
2019-01-21T03:24:57.751Z,41.80
2019-01-21T03:28:18.371Z,43.50
2019-01-21T03:31:23.505Z,41.30
2019-01-21T03:34:28.417Z,42.03
2019-01-21T03:37:31.217Z,42.10
2019-01-21T03:40:45.110Z,41.90
2019-01-21T03:43:54.522Z,42.40
2019-01-21T03:47:00.502Z,42.93
2019-01-21T03:49:39.944Z,40.17
2019-01-21T03:53:00.235Z,42.40
2019-01-21T03:55:31.646Z,41.97
2019-01-21T03:58:46.058Z,43.07
2019-01-21T04:01:52.094Z,42.30
2019-01-21T04:04:58.403Z,42.33
2019-01-21T04:07:58.406Z,40.17
2019-01-21T04:10:58.559Z,40.80
2019-01-21T04:14:15.087Z,40.80
2019-01-21T04:17:13.446Z,41.87
2019-01-21T04:20:08.354Z,43.07
2019-01-21T04:23:03.142Z,40.87
2019-01-21T04:26:03.645Z,40.73
2019-01-21T04:29:00.640Z,41.43
2019-01-21T04:32:17.996Z,41.57
2019-01-21T04:35:16.663Z,41.63
2019-01-21T04:38:33.093Z,41.73
2019-01-21T04:41:28.941Z,41.83
2019-01-21T04:44:21.334Z,43.47
2019-01-21T04:47:34.863Z,44.03
2019-01-21T04:50:34.911Z,43.77
2019-01-21T04:53:57.713Z,43.37
2019-01-21T04:57:11.196Z,41.87
2019-01-21T05:00:21.118Z,42.30
2019-01-21T05:03:17.603Z,42.53
2019-01-21T05:06:14.530Z,42.37
2019-01-21T05:09:44.364Z,42.10
2019-01-21T05:12:53.213Z,42.53
2019-01-21T05:15:59.524Z,43.20
2019-01-21T05:18:54.835Z,44.27
2019-01-21T05:22:02.562Z,45.07
2019-01-21T05:25:17.049Z,46.17
2019-01-21T05:28:32.707Z,44.20
2019-01-21T05:31:53.376Z,43.30
2019-01-21T05:34:55.814Z,42.27
2019-01-21T05:37:49.774Z,44.10
2019-01-21T05:40:59.715Z,44.67
2019-01-21T05:44:14.427Z,41.87
2019-01-21T05:47:19.218Z,41.37
2019-01-21T05:50:34.444Z,40.20
2019-01-21T05:53:40.192Z,41.40
2019-01-21T05:56:47.361Z,43.43
2019-01-21T05:59:57.824Z,42.77
2019-01-21T06:02:57.100Z,40.70
2019-01-21T06:06:12.918Z,42.73
2019-01-21T06:09:35.516Z,43.77
2019-01-21T06:12:39.589Z,41.47
2019-01-21T06:15:50.017Z,42.50
2019-01-21T06:18:57.173Z,45.30
2019-01-21T06:22:23.341Z,44.00
2019-01-21T06:25:40.067Z,45.07
2019-01-21T06:29:00.639Z,44.47
2019-01-21T06:32:27.730Z,44.57
2019-01-21T06:35:45.150Z,43.07
2019-01-21T06:38:33.652Z,44.60
2019-01-21T06:41:53.032Z,44.80
2019-01-21T06:44:33.780Z,41.93
2019-01-21T06:48:01.805Z,44.23
2019-01-21T06:50:55.194Z,46.70
2019-01-21T06:53:57.444Z,41.23
2019-01-21T06:57:10.865Z,42.43
2019-01-21T07:00:28.188Z,41.07
2019-01-21T07:03:25.518Z,41.13
2019-01-21T07:06:26.064Z,43.27
2019-01-21T07:09:20.261Z,43.20
2019-01-21T07:12:07.422Z,41.43
2019-01-21T07:15:18.923Z,37.70
2019-01-21T07:18:35.121Z,36.00
2019-01-21T07:21:59.093Z,37.73
2019-01-21T07:25:05.637Z,38.20
2019-01-21T07:28:02.492Z,39.23
2019-01-21T07:31:18.899Z,40.83
2019-01-21T07:34:23.967Z,40.13
2019-01-21T07:37:32.758Z,44.63
2019-01-21T07:40:52.543Z,43.30
2019-01-21T07:44:01.353Z,40.10
2019-01-21T07:47:11.603Z,40.37
2019-01-21T07:50:13.877Z,42.27
2019-01-21T07:53:21.859Z,41.20
2019-01-21T07:56:30.463Z,41.17
2019-01-21T07:59:34.333Z,42.63
2019-01-21T08:02:44.725Z,41.30
2019-01-21T08:05:48.940Z,39.23
2019-01-21T08:08:54.050Z,41.20
2019-01-21T08:12:00.421Z,41.10
2019-01-21T08:15:17.717Z,41.30
2019-01-21T08:18:18.602Z,39.33
2019-01-21T08:21:39.418Z,37.30
2019-01-21T08:25:02.744Z,36.30
2019-01-21T08:28:23.378Z,40.20
2019-01-21T08:31:13.554Z,39.37
2019-01-21T08:34:24.375Z,35.93
2019-01-21T08:37:29.544Z,38.13
2019-01-21T08:40:19.122Z,35.97
2019-01-21T08:43:16.381Z,35.83
2019-01-21T08:46:21.534Z,38.57
2019-01-21T08:49:18.564Z,35.27
2019-01-21T08:52:11.962Z,39.60
2019-01-21T08:55:26.775Z,39.60
2019-01-21T08:58:35.757Z,39.23
2019-01-21T09:04:42.981Z,38.73
2019-01-21T09:07:49.031Z,39.20
2019-01-21T09:11:09.510Z,41.73
2019-01-21T09:14:21.434Z,42.23
2019-01-21T09:17:38.773Z,45.90
2019-01-21T09:20:41.479Z,47.77
2019-01-21T09:23:44.396Z,46.67
2019-01-21T09:27:08.134Z,49.83
2019-01-21T09:30:37.835Z,50.83
2019-01-21T09:33:47.022Z,50.17
2019-01-21T09:37:12.807Z,48.10
2019-01-21T09:40:05.447Z,47.47
2019-01-21T09:43:10.447Z,51.00
2019-01-21T09:46:20.997Z,47.93
2019-01-21T09:48:49.804Z,47.20
2019-01-21T09:51:21.119Z,46.30
2019-01-21T09:53:54.562Z,46.33
2019-01-21T09:56:27.135Z,47.43
2019-01-21T09:58:59.285Z,47.00
2019-01-21T10:01:31.804Z,47.83
2019-01-21T10:04:03.086Z,46.23
2019-01-21T10:06:42.246Z,48.17
2019-01-21T10:10:02.872Z,46.53
2019-01-21T10:13:09.948Z,45.27
2019-01-21T10:15:59.909Z,47.93
2019-01-21T10:19:14.657Z,47.43
2019-01-21T10:22:05.932Z,46.10
2019-01-21T10:24:56.269Z,45.80
2019-01-21T10:27:57.770Z,46.50
2019-01-21T10:31:08.826Z,46.13
2019-01-21T10:34:05.103Z,45.80
2019-01-21T10:37:03.995Z,43.50
2019-01-21T10:40:07.914Z,45.23
2019-01-21T10:43:13.639Z,45.07
2019-01-21T10:46:21.182Z,44.97
2019-01-21T10:49:27.662Z,43.00
2019-01-21T10:52:41.658Z,41.53
2019-01-21T10:55:39.606Z,43.33
2019-01-21T10:58:19.323Z,40.37
2019-01-21T11:01:40.261Z,40.97
2019-01-21T11:04:23.965Z,40.13
2019-01-21T11:07:30.814Z,41.53
2019-01-21T11:10:23.651Z,40.53
2019-01-21T11:13:19.436Z,39.90
2019-01-21T11:16:14.141Z,40.47
2019-01-21T11:19:39.528Z,38.97
2019-01-21T11:22:23.089Z,40.20
2019-01-21T11:25:39.207Z,42.57
2019-01-21T11:28:47.854Z,42.37
2019-01-21T11:31:41.209Z,42.03
2019-01-21T11:34:47.611Z,41.63
2019-01-21T11:37:56.334Z,41.30
2019-01-21T11:41:09.465Z,41.17
2019-01-21T11:44:16.691Z,40.13
2019-01-21T11:47:40.215Z,41.07
2019-01-21T11:50:38.975Z,40.40
2019-01-21T11:53:34.284Z,42.67
2019-01-21T11:56:25.899Z,42.53
2019-01-21T11:59:22.223Z,43.97
2019-01-21T12:02:45.660Z,42.33
2019-01-21T12:05:40.182Z,42.30
2019-01-21T12:09:13.848Z,41.93
2019-01-21T12:12:17.779Z,42.17
2019-01-21T12:15:38.456Z,42.20
2019-01-21T12:19:17.500Z,43.03
2019-01-21T12:22:10.519Z,39.03
2019-01-21T12:24:58.240Z,39.97
2019-01-21T12:28:27.800Z,37.63
2019-01-21T12:31:09.250Z,36.40
2019-01-21T12:34:32.990Z,38.10
2019-01-21T12:37:43.624Z,36.50
2019-01-21T12:40:41.984Z,37.90
2019-01-21T12:43:45.441Z,38.10
2019-01-21T12:46:49.209Z,37.13
2019-01-21T12:49:56.712Z,38.10
2019-01-21T12:52:41.309Z,38.07
2019-01-21T12:55:51.262Z,36.53
2019-01-21T12:59:06.025Z,38.13
2019-01-21T13:01:55.359Z,36.77
2019-01-21T13:04:41.739Z,38.03
2019-01-21T13:07:53.679Z,36.77
2019-01-21T13:10:48.021Z,38.57
2019-01-21T13:13:48.538Z,36.03
2019-01-21T13:16:45.343Z,37.30
2019-01-21T13:20:03.228Z,36.77
2019-01-21T13:22:51.560Z,34.73
2019-01-21T13:25:48.540Z,34.73
2019-01-21T13:28:42.272Z,35.27
2019-01-21T13:32:02.806Z,34.93
2019-01-21T13:35:22.454Z,34.90
2019-01-21T13:38:31.098Z,32.07
2019-01-21T13:41:41.296Z,34.33
2019-01-21T13:44:35.408Z,31.83
2019-01-21T13:47:38.767Z,28.53
2019-01-21T13:50:54.910Z,30.67
2019-01-21T13:54:06.448Z,31.07
2019-01-21T13:57:05.936Z,32.10
2019-01-21T14:00:23.884Z,31.43
2019-01-21T14:03:18.931Z,32.57
2019-01-21T14:06:39.651Z,30.53
2019-01-21T14:09:57.365Z,30.30
2019-01-21T14:13:10.619Z,30.17
2019-01-21T14:16:06.745Z,32.40
2019-01-21T14:19:12.151Z,34.90
2019-01-21T14:22:38.051Z,35.07
2019-01-21T14:26:10.763Z,32.93
2019-01-21T14:29:28.534Z,33.90
2019-01-21T14:32:46.103Z,34.13
2019-01-21T14:36:08.303Z,33.33
2019-01-21T14:39:13.965Z,32.83
2019-01-21T14:42:41.814Z,32.97
2019-01-21T14:46:10.255Z,33.90
2019-01-21T14:48:49.615Z,35.23
2019-01-21T14:51:55.760Z,36.67
2019-01-21T14:54:50.708Z,40.73
2019-01-21T14:58:05.347Z,40.57
2019-01-21T15:01:13.094Z,38.10
2019-01-21T15:07:39.142Z,39.40
2019-01-21T15:11:02.700Z,42.03
2019-01-21T15:14:06.126Z,38.93
2019-01-21T15:17:19.356Z,36.30
2019-01-21T15:20:08.979Z,38.77
2019-01-21T15:23:21.510Z,39.43
2019-01-21T15:26:25.247Z,39.60
2019-01-21T15:29:35.178Z,37.40
2019-01-21T15:32:16.186Z,37.90
2019-01-21T15:35:11.194Z,36.10
2019-01-21T15:38:24.541Z,33.03
2019-01-21T15:41:57.204Z,32.17
2019-01-21T15:44:55.436Z,33.73
2019-01-21T15:47:48.104Z,32.20
2019-01-21T15:51:05.040Z,35.23
2019-01-21T15:54:08.397Z,33.67
2019-01-21T15:57:11.782Z,33.03
2019-01-21T16:00:35.588Z,34.00
2019-01-21T16:03:40.523Z,34.23
2019-01-21T16:06:52.790Z,33.53
2019-01-21T16:10:04.279Z,37.13
2019-01-21T16:13:21.889Z,32.90
2019-01-21T16:16:29.587Z,35.87
2019-01-21T16:19:03.957Z,34.87
2019-01-21T16:22:02.861Z,37.80
2019-01-21T16:24:55.407Z,37.37
2019-01-21T16:27:46.533Z,37.53
2019-01-21T16:30:31.499Z,37.67
2019-01-21T16:34:01.631Z,38.07
2019-01-21T16:36:46.703Z,38.93
2019-01-21T16:39:49.561Z,38.47
2019-01-21T16:42:18.433Z,37.10
2019-01-21T16:44:49.460Z,39.03
2019-01-21T16:47:20.074Z,37.70
2019-01-21T16:49:51.918Z,37.07
2019-01-21T16:52:22.550Z,38.57
2019-01-21T16:54:53.288Z,37.53
2019-01-21T16:57:24.157Z,37.53
2019-01-21T16:59:54.645Z,38.13
2019-01-21T17:02:25.157Z,36.50
2019-01-21T17:04:55.937Z,43.30
2019-01-21T17:07:26.753Z,38.50
2019-01-21T17:09:58.141Z,38.13
2019-01-21T17:12:30.445Z,38.93
2019-01-21T17:15:01.437Z,38.37
2019-01-21T17:17:32.455Z,39.40
2019-01-21T17:20:03.187Z,38.10
2019-01-21T17:22:34.019Z,36.70
2019-01-21T17:25:05.342Z,37.50
2019-01-21T17:27:36.176Z,36.63
2019-01-21T17:30:09.023Z,33.83
2019-01-21T17:32:39.828Z,35.20
2019-01-21T17:35:11.686Z,35.53
2019-01-21T17:37:42.939Z,34.77
2019-01-21T17:40:15.194Z,31.70
2019-01-21T17:42:45.991Z,31.97
2019-01-21T17:45:19.024Z,31.10
2019-01-21T17:47:49.755Z,33.47
2019-01-21T17:50:20.325Z,32.53
2019-01-21T17:52:51.027Z,31.17
2019-01-21T17:55:21.936Z,27.70
2019-01-21T17:57:52.671Z,27.67
2019-01-21T18:00:24.382Z,31.10
2019-01-21T18:02:55.106Z,30.93
2019-01-21T18:05:25.929Z,31.80
2019-01-21T18:07:56.865Z,32.57
2019-01-21T18:10:27.619Z,31.70
2019-01-21T18:12:58.466Z,32.67
2019-01-21T18:15:29.219Z,31.50
2019-01-21T18:17:59.789Z,31.43
2019-01-21T18:20:30.403Z,44.38
2019-01-21T18:23:01.495Z,36.60
2019-01-21T18:25:33.080Z,34.87
2019-01-21T18:28:04.115Z,34.40
2019-01-21T18:30:35.119Z,32.07
2019-01-21T18:33:05.945Z,39.15
2019-01-21T18:35:37.037Z,33.87
2019-01-21T18:38:07.961Z,31.13
2019-01-21T18:40:38.537Z,32.87
2019-01-21T18:43:09.129Z,32.63
2019-01-21T18:45:39.994Z,31.00
2019-01-21T18:48:10.919Z,31.17
2019-01-21T18:50:41.515Z,29.37
2019-01-21T18:53:12.149Z,31.40
2019-01-21T18:55:42.748Z,30.83
2019-01-21T18:58:13.615Z,31.10
2019-01-21T19:00:44.488Z,31.83
2019-01-21T19:03:15.290Z,29.03
2019-01-21T19:05:45.849Z,25.83
2019-01-21T19:08:16.798Z,27.60
2019-01-21T19:10:47.588Z,26.97
2019-01-21T19:13:18.318Z,27.87
2019-01-21T19:15:49.152Z,27.23
2019-01-21T19:18:19.977Z,28.80
2019-01-21T19:20:50.733Z,28.57
2019-01-21T19:23:21.909Z,27.57
2019-01-21T19:25:52.671Z,29.60
2019-01-21T19:28:23.300Z,28.03
2019-01-21T19:30:54.032Z,30.13
2019-01-21T19:33:25.024Z,28.47
2019-01-21T19:35:55.779Z,27.90
2019-01-21T19:38:26.674Z,29.17
2019-01-21T19:40:57.259Z,28.77
2019-01-21T19:43:27.987Z,31.10
2019-01-21T19:45:58.665Z,28.60
2019-01-21T19:48:29.543Z,29.17
2019-01-21T19:51:00.375Z,27.70
2019-01-21T19:53:31.051Z,28.67
2019-01-21T19:56:01.785Z,29.83
2019-01-21T19:58:32.493Z,28.87
2019-01-21T20:01:03.041Z,27.67
2019-01-21T20:03:33.618Z,29.03
2019-01-21T20:06:04.587Z,30.60
2019-01-21T20:08:35.384Z,29.10
2019-01-21T20:11:06.956Z,30.97
2019-01-21T20:13:37.899Z,31.10
2019-01-21T20:16:08.691Z,31.97
2019-01-21T20:18:39.193Z,32.33
2019-01-21T20:21:11.126Z,29.33
2019-01-21T20:23:41.791Z,30.63
2019-01-21T20:26:12.372Z,29.07
2019-01-21T20:28:42.954Z,29.93
2019-01-21T20:31:13.904Z,28.73
2019-01-21T20:33:44.822Z,28.20
2019-01-21T20:36:16.013Z,29.83
2019-01-21T20:38:46.818Z,29.63
2019-01-21T20:41:17.498Z,28.97
2019-01-21T20:43:48.052Z,28.03
2019-01-21T20:46:18.815Z,27.33
2019-01-21T20:48:49.582Z,25.37
2019-01-21T20:51:20.028Z,25.03
2019-01-21T20:53:51.151Z,25.33
2019-01-21T20:56:21.780Z,26.10
2019-01-21T20:58:52.698Z,27.33
2019-01-21T21:01:23.398Z,27.93
2019-01-21T21:03:54.366Z,25.00
2019-01-21T21:06:25.546Z,23.77
2019-01-21T21:08:56.730Z,24.67
2019-01-21T21:11:27.406Z,24.83
2019-01-21T21:13:58.359Z,26.00
2019-01-21T21:16:29.350Z,24.53
2019-01-21T21:19:00.383Z,23.33
2019-01-21T21:21:31.321Z,24.90
2019-01-21T21:24:02.403Z,27.37
2019-01-21T21:26:33.379Z,25.77
2019-01-21T21:29:04.949Z,25.93
2019-01-21T21:31:35.956Z,27.10
2019-01-21T21:34:07.221Z,27.47
2019-01-21T21:36:38.134Z,26.80
2019-01-21T21:39:09.874Z,26.10
2019-01-21T21:41:41.651Z,28.30
2019-01-21T21:44:13.625Z,26.67
2019-01-21T21:46:44.914Z,27.13
2019-01-21T21:49:15.785Z,27.30
2019-01-21T21:51:46.853Z,26.17
2019-01-21T21:54:17.972Z,28.80
2019-01-21T21:56:48.627Z,25.83
2019-01-21T21:59:19.571Z,25.70
2019-01-21T22:01:50.372Z,23.93
2019-01-21T22:04:21.103Z,24.97
2019-01-21T22:06:51.764Z,24.37
2019-01-21T22:09:23.442Z,25.93
2019-01-21T22:11:54.201Z,26.60
2019-01-21T22:14:25.528Z,28.07
2019-01-21T22:16:56.436Z,26.27
2019-01-21T22:19:27.284Z,24.97
2019-01-21T22:21:58.368Z,23.47
2019-01-21T22:24:29.074Z,22.53
2019-01-21T22:27:00.015Z,22.57
2019-01-21T22:29:30.802Z,22.70
2019-01-21T22:32:01.356Z,22.60
2019-01-21T22:34:32.192Z,21.83
2019-01-21T22:37:02.817Z,21.50
2019-01-21T22:39:33.450Z,20.60
2019-01-21T22:42:04.045Z,18.10
2019-01-21T22:44:35.142Z,18.57
2019-01-21T22:47:05.668Z,18.67
2019-01-21T22:49:36.202Z,18.63
2019-01-21T22:52:06.879Z,20.57
2019-01-21T22:54:37.613Z,20.27
2019-01-21T22:57:08.215Z,19.37
2019-01-21T22:59:38.871Z,21.07
2019-01-21T23:02:09.861Z,18.73
2019-01-21T23:04:40.555Z,19.57
2019-01-21T23:07:11.125Z,20.93
2019-01-21T23:09:41.725Z,20.20
2019-01-21T23:12:12.535Z,20.77
2019-01-21T23:14:43.208Z,21.87
2019-01-21T23:17:14.175Z,21.70
2019-01-21T23:19:45.045Z,21.97
2019-01-21T23:22:15.621Z,23.50
2019-01-21T23:24:46.349Z,21.83
2019-01-21T23:27:16.879Z,22.80
2019-01-21T23:29:47.567Z,22.33
2019-01-21T23:32:18.066Z,22.20
2019-01-21T23:34:48.865Z,21.83
2019-01-21T23:37:19.611Z,19.63
2019-01-21T23:39:50.295Z,20.43
2019-01-21T23:42:21.506Z,20.40
2019-01-21T23:44:52.181Z,18.63
2019-01-21T23:47:22.871Z,18.10
2019-01-21T23:49:53.474Z,19.07
2019-01-21T23:52:24.058Z,18.90
2019-01-21T23:54:54.917Z,19.40
2019-01-21T23:57:25.426Z,18.20
2019-01-21T23:59:55.916Z,17.23
